Sandy Springs, South Carolina
Current Conditions -  °F | °C
As of 11:56 AM on Monday 22 Dec 2014 (Local Time) from KAND Reporting Station
Overcast Overcast  
Wind Chill: 36°   Ceiling: 600
Heat Index: 42°   Visibility: 9mi
Dew Point: 40°   Wind: 12mph
Humidity: 92%   Direction: 50°NE
Pressure: 30.04"   Gusts: NA
Location:  34.6°N, 82.75°W
Report Text: KAND 221656Z AUTO 05010KT 9SM OVC006 06/04 A3004 RMK AO2 RAB06E16 SLP174 P0000 T00560044
Loading
Personal Weather Stations






























Interactive Weather Map New forecast layout! Learn more

10-Day Weather Forecast

Advertisements
Track Severe Weather on mobile